Las Vegas, Nevada
Traffic Map
Current Weather Conditions
Las Vegas, Nevada
Scattered Clouds
Scattered Clouds
10°
Feels Like: 10°
Wind Chill: 10° Ceiling: Unl
Heat Index: 10° Visibility: 10mi
Dew Point: Wind: 10mph
Humidity: 80% Direction: 200° (SSW)
Pressure: 30.21in Gusts: 0mph
Raw Report DataKLAS 281356Z 20009KT 10SM FEW034 SCT250 10/07 A3021 RMK AO2 SLP224 T01000067 $
Traffic Incident Summary
Active as of:
Severity:
Category:
InformationThere was an issue retrieving the traffic information for this location. Please try a different location or try again shortly.
Advertisements
Track Severe Weather on mobile